createdAt,value
2023-11-12T00:00:50.176Z,94.20
2023-11-12T00:03:18.177Z,94.20
2023-11-12T00:05:46.511Z,94.10
2023-11-12T00:08:14.478Z,94.20
2023-11-12T00:10:45.799Z,94.20
2023-11-12T00:13:13.967Z,94.20
2023-11-12T00:15:42.032Z,94.20
2023-11-12T00:18:10.039Z,94.20
2023-11-12T00:20:37.731Z,94.30
2023-11-12T00:23:05.612Z,94.30
2023-11-12T00:25:33.448Z,94.20
2023-11-12T00:28:01.236Z,94.20
2023-11-12T00:30:29.381Z,94.10
2023-11-12T00:32:57.755Z,94.20
2023-11-12T00:35:25.699Z,94.20
2023-11-12T00:37:54.628Z,94.20
2023-11-12T00:40:22.753Z,94.10
2023-11-12T00:42:50.634Z,94.10
2023-11-12T00:45:19.258Z,94.20
2023-11-12T00:47:47.953Z,94.10
2023-11-12T00:50:17.472Z,94.20
2023-11-12T00:52:45.967Z,94.20
2023-11-12T00:55:13.583Z,94.20
2023-11-12T00:57:41.250Z,94.20
2023-11-12T01:00:10.115Z,94.20
2023-11-12T01:02:38.059Z,94.20
2023-11-12T01:05:06.722Z,94.20
2023-11-12T01:07:37.335Z,94.20
2023-11-12T01:10:05.878Z,94.20
2023-11-12T01:12:33.723Z,94.20
2023-11-12T01:15:01.466Z,94.30
2023-11-12T01:17:30.276Z,94.40
2023-11-12T01:19:58.214Z,94.60
2023-11-12T01:22:26.445Z,94.60
2023-11-12T01:24:54.339Z,94.60
2023-11-12T01:27:22.749Z,94.60
2023-11-12T01:29:50.605Z,94.70
2023-11-12T01:32:18.980Z,94.60
2023-11-12T01:34:46.749Z,94.60
2023-11-12T01:37:14.827Z,94.50
2023-11-12T01:39:42.698Z,94.40
2023-11-12T01:42:13.118Z,94.40
2023-11-12T01:44:41.018Z,94.40
2023-11-12T01:47:10.950Z,94.40
2023-11-12T01:49:40.697Z,94.40
2023-11-12T01:52:12.536Z,94.50
2023-11-12T01:54:41.184Z,94.60
2023-11-12T01:57:09.723Z,94.50
2023-11-12T01:59:37.717Z,94.60
2023-11-12T02:02:06.537Z,94.60
2023-11-12T02:04:34.495Z,94.70
2023-11-12T02:07:02.954Z,94.70
2023-11-12T02:09:30.937Z,94.70
2023-11-12T02:11:58.827Z,94.60
2023-11-12T02:14:27.279Z,94.60
2023-11-12T02:16:56.650Z,94.70
2023-11-12T02:19:29.784Z,94.80
2023-11-12T02:21:59.090Z,94.90
2023-11-12T02:24:27.079Z,94.90
2023-11-12T02:26:55.316Z,94.90
2023-11-12T02:29:23.322Z,94.90
2023-11-12T02:31:51.244Z,94.90
2023-11-12T02:34:19.559Z,95.00
2023-11-12T02:36:47.700Z,95.10
2023-11-12T02:39:16.796Z,95.10
2023-11-12T02:41:45.725Z,95.20
2023-11-12T02:44:14.591Z,95.30
2023-11-12T02:46:43.246Z,95.30
2023-11-12T02:49:45.257Z,95.30
2023-11-12T02:52:13.214Z,95.30
2023-11-12T02:54:41.300Z,95.20
2023-11-12T02:57:09.774Z,95.20
2023-11-12T02:59:37.548Z,95.30
2023-11-12T03:06:57.790Z,95.30
2023-11-12T03:09:26.612Z,95.30
2023-11-12T03:11:55.149Z,95.20
2023-11-12T03:14:23.097Z,95.10
2023-11-12T03:16:50.922Z,95.10
2023-11-12T03:19:19.190Z,95.10
2023-11-12T03:21:54.216Z,95.10
2023-11-12T03:24:23.218Z,95.10
2023-11-12T03:26:56.709Z,95.20
2023-11-12T03:29:24.594Z,95.10
2023-11-12T03:31:55.000Z,95.20
2023-11-12T03:34:25.867Z,95.20
2023-11-12T03:36:53.849Z,95.30
2023-11-12T03:39:21.961Z,95.30
2023-11-12T03:41:49.853Z,95.20
2023-11-12T03:44:17.744Z,95.10
2023-11-12T03:46:45.622Z,95.10
2023-11-12T03:49:13.505Z,95.10
2023-11-12T03:51:41.267Z,95.10
2023-11-12T03:54:11.454Z,95.10
2023-11-12T03:56:39.797Z,95.10
2023-11-12T03:59:08.325Z,95.10
2023-11-12T04:01:36.407Z,95.10
2023-11-12T04:04:04.449Z,95.20
2023-11-12T04:06:32.956Z,95.20
2023-11-12T04:09:00.893Z,95.20
2023-11-12T04:11:28.613Z,95.30
2023-11-12T04:13:56.556Z,95.20
2023-11-12T04:16:24.392Z,95.30
2023-11-12T04:18:54.670Z,95.30
2023-11-12T04:21:23.369Z,95.30
2023-11-12T04:23:51.227Z,95.30
2023-11-12T04:26:19.132Z,95.40
2023-11-12T04:28:46.846Z,95.40
2023-11-12T04:31:15.481Z,95.40
2023-11-12T04:33:44.417Z,95.40
2023-11-12T04:36:14.080Z,95.40
2023-11-12T04:38:42.416Z,95.40
2023-11-12T04:41:12.997Z,95.40
2023-11-12T04:43:43.731Z,95.40
2023-11-12T04:46:12.546Z,95.40
2023-11-12T04:48:40.855Z,95.40
2023-11-12T04:51:09.398Z,95.40
2023-11-12T04:53:38.913Z,95.40
2023-11-12T04:56:11.229Z,95.40
2023-11-12T04:58:40.152Z,95.40
2023-11-12T05:01:07.934Z,95.40
2023-11-12T05:03:35.725Z,95.40
2023-11-12T05:06:05.138Z,95.40
2023-11-12T05:08:33.039Z,95.50
2023-11-12T05:11:00.884Z,95.50
2023-11-12T05:13:28.799Z,95.50
2023-11-12T05:15:57.979Z,95.50
2023-11-12T05:18:25.873Z,95.50
2023-11-12T05:20:53.540Z,95.60
2023-11-12T05:23:21.352Z,95.60
2023-11-12T05:25:49.182Z,95.60
2023-11-12T05:28:16.971Z,95.60
2023-11-12T05:30:44.824Z,95.70
2023-11-12T05:33:12.685Z,95.70
2023-11-12T05:35:40.415Z,95.70
2023-11-12T05:38:08.671Z,95.70
2023-11-12T05:40:36.526Z,95.70
2023-11-12T05:43:04.331Z,95.70
2023-11-12T05:45:32.371Z,95.70
2023-11-12T05:48:00.179Z,95.70
2023-11-12T05:50:27.867Z,95.60
2023-11-12T05:52:55.692Z,95.60
2023-11-12T05:55:23.445Z,95.70
2023-11-12T05:57:52.086Z,95.60
2023-11-12T06:00:20.789Z,95.60
2023-11-12T06:02:48.705Z,95.60
2023-11-12T06:05:17.128Z,95.60
2023-11-12T06:07:45.870Z,95.50
2023-11-12T06:10:14.551Z,95.50
2023-11-12T06:12:42.233Z,95.50
2023-11-12T06:15:11.854Z,95.60
2023-11-12T06:17:40.853Z,95.60
2023-11-12T06:20:09.131Z,95.70
2023-11-12T06:22:39.381Z,95.70
2023-11-12T06:25:12.758Z,95.70
2023-11-12T06:27:41.066Z,95.60
2023-11-12T06:30:10.342Z,95.60
2023-11-12T06:32:39.532Z,95.60
2023-11-12T06:35:07.580Z,95.60
2023-11-12T06:37:35.614Z,95.60
2023-11-12T06:40:04.338Z,95.50
2023-11-12T06:42:33.478Z,95.50
2023-11-12T06:45:01.118Z,95.50
2023-11-12T06:47:28.704Z,95.50
2023-11-12T06:49:57.928Z,95.50
2023-11-12T06:52:25.814Z,95.40
2023-11-12T06:54:53.535Z,95.40
2023-11-12T06:57:21.684Z,95.40
2023-11-12T06:59:49.448Z,95.40
2023-11-12T07:02:17.365Z,95.50
2023-11-12T07:04:45.315Z,95.40
2023-11-12T07:07:16.894Z,95.40
2023-11-12T07:09:47.520Z,95.40
2023-11-12T07:12:16.665Z,95.40
2023-11-12T07:14:44.624Z,95.40
2023-11-12T07:17:12.540Z,95.30
2023-11-12T07:19:45.490Z,95.30
2023-11-12T07:22:13.425Z,95.30
2023-11-12T07:24:41.227Z,95.30
2023-11-12T07:27:09.086Z,95.30
2023-11-12T07:29:36.856Z,95.30
2023-11-12T07:32:07.675Z,95.20
2023-11-12T07:34:35.301Z,95.20
2023-11-12T07:37:06.371Z,95.20
2023-11-12T07:39:34.393Z,95.20
2023-11-12T07:42:02.605Z,95.20
2023-11-12T07:44:32.223Z,95.20
2023-11-12T07:46:59.941Z,95.20
2023-11-12T07:49:27.838Z,95.10
2023-11-12T07:51:55.639Z,95.10
2023-11-12T07:54:24.307Z,95.10
2023-11-12T07:56:52.129Z,95.00
2023-11-12T07:59:19.961Z,95.00
2023-11-12T08:01:49.468Z,94.90
2023-11-12T08:04:18.611Z,94.90
2023-11-12T08:06:50.714Z,94.80
2023-11-12T08:09:18.714Z,94.90
2023-11-12T08:11:46.700Z,94.80
2023-11-12T08:14:15.201Z,94.80
2023-11-12T08:16:43.684Z,94.80
2023-11-12T08:19:12.097Z,94.80
2023-11-12T08:21:40.240Z,94.80
2023-11-12T08:24:08.725Z,94.80
2023-11-12T08:26:40.124Z,94.70
2023-11-12T08:29:08.658Z,94.70
2023-11-12T08:31:37.507Z,94.70
2023-11-12T08:34:07.030Z,94.70
2023-11-12T08:36:34.937Z,94.70
2023-11-12T08:39:06.045Z,94.70
2023-11-12T08:41:34.368Z,94.70
2023-11-12T08:44:02.378Z,94.60
2023-11-12T08:46:30.412Z,94.60
2023-11-12T08:48:58.347Z,94.60
2023-11-12T08:51:26.303Z,94.50
2023-11-12T08:53:54.274Z,94.50
2023-11-12T08:56:22.050Z,94.50
2023-11-12T08:58:49.887Z,94.50
2023-11-12T09:01:17.548Z,94.40
2023-11-12T09:03:46.018Z,94.40
2023-11-12T09:06:13.810Z,94.40
2023-11-12T09:08:41.602Z,94.40
2023-11-12T09:11:14.183Z,94.40
2023-11-12T09:13:43.691Z,94.40
2023-11-12T09:16:12.264Z,94.30
2023-11-12T09:18:40.980Z,94.30
2023-11-12T09:21:08.788Z,94.30
2023-11-12T09:23:36.738Z,94.30
2023-11-12T09:26:05.672Z,94.30
2023-11-12T09:28:33.361Z,94.30
2023-11-12T09:31:01.519Z,94.40
2023-11-12T09:33:29.451Z,94.40
2023-11-12T09:35:57.508Z,94.40
2023-11-12T09:38:25.521Z,94.40
2023-11-12T09:40:54.791Z,94.40
2023-11-12T09:43:29.527Z,94.40
2023-11-12T09:45:58.529Z,94.40
2023-11-12T09:48:36.663Z,94.50
2023-11-12T09:51:09.231Z,94.50
2023-11-12T09:53:43.609Z,94.50
2023-11-12T09:56:11.662Z,94.50
2023-11-12T09:58:46.567Z,94.50
2023-11-12T10:01:15.260Z,94.50
2023-11-12T10:03:49.041Z,94.50
2023-11-12T10:06:18.222Z,94.50
2023-11-12T10:08:46.445Z,94.50
2023-11-12T10:11:19.120Z,94.60
2023-11-12T10:13:47.912Z,94.60
2023-11-12T10:16:32.117Z,94.60
2023-11-12T10:19:15.475Z,94.60
2023-11-12T10:21:57.876Z,94.60
2023-11-12T10:24:30.806Z,94.50
2023-11-12T10:27:02.614Z,94.50
2023-11-12T10:29:30.526Z,94.50
2023-11-12T10:31:59.048Z,94.60
2023-11-12T10:34:28.877Z,94.60
2023-11-12T10:37:11.419Z,94.60
2023-11-12T10:39:43.002Z,94.70
2023-11-12T10:42:20.989Z,94.70
2023-11-12T10:44:51.727Z,94.70
2023-11-12T10:47:22.235Z,94.70
2023-11-12T10:49:51.493Z,94.70
2023-11-12T10:52:20.222Z,94.70
2023-11-12T10:54:48.593Z,94.70
2023-11-12T10:57:20.215Z,94.70
2023-11-12T10:59:50.398Z,94.70
2023-11-12T11:02:19.981Z,94.70
2023-11-12T11:04:48.512Z,94.70
2023-11-12T11:07:17.591Z,94.70
2023-11-12T11:09:45.782Z,94.70
2023-11-12T11:12:15.110Z,94.70
2023-11-12T11:14:42.957Z,94.80
2023-11-12T11:17:42.054Z,94.70
2023-11-12T11:20:13.406Z,94.80
2023-11-12T11:22:42.908Z,94.70
2023-11-12T11:25:31.133Z,94.60
2023-11-12T11:28:35.678Z,94.60
2023-11-12T11:31:12.448Z,94.60
2023-11-12T11:33:49.485Z,94.50
2023-11-12T11:36:19.956Z,94.40
2023-11-12T11:39:24.920Z,94.30
2023-11-12T11:41:54.922Z,94.20
2023-11-12T11:44:48.012Z,94.00
2023-11-12T11:47:24.802Z,93.90
2023-11-12T11:49:59.100Z,93.90
2023-11-12T11:52:30.984Z,93.90
2023-11-12T11:55:01.552Z,93.90
2023-11-12T11:57:33.212Z,93.90
2023-11-12T12:00:02.612Z,93.90
2023-11-12T12:02:43.165Z,93.90
2023-11-12T12:05:14.179Z,93.90
2023-11-12T12:07:46.121Z,93.90
2023-11-12T12:10:27.950Z,93.90
2023-11-12T12:12:56.486Z,93.90
2023-11-12T12:15:24.662Z,93.90
2023-11-12T12:17:52.648Z,94.00
2023-11-12T12:20:21.191Z,94.00
2023-11-12T12:22:49.273Z,94.00
2023-11-12T12:25:18.016Z,93.90
2023-11-12T12:27:53.933Z,93.90
2023-11-12T12:30:21.973Z,93.90
2023-11-12T12:32:50.698Z,93.90
2023-11-12T12:35:23.883Z,93.90
2023-11-12T12:37:51.774Z,93.90
2023-11-12T12:40:29.337Z,94.00
2023-11-12T12:42:59.006Z,94.00
2023-11-12T12:45:27.231Z,93.90
2023-11-12T12:47:57.016Z,93.90
2023-11-12T12:50:33.719Z,93.90
2023-11-12T12:53:16.280Z,93.80
2023-11-12T12:55:45.842Z,93.70
2023-11-12T12:58:14.129Z,93.70
2023-11-12T13:00:44.376Z,93.70
2023-11-12T13:03:28.330Z,93.70
2023-11-12T13:05:57.961Z,93.60
2023-11-12T13:08:25.857Z,93.60
2023-11-12T13:10:55.566Z,93.60
2023-11-12T13:13:25.429Z,93.60
2023-11-12T13:15:53.311Z,93.60
2023-11-12T13:18:23.678Z,93.70
2023-11-12T13:20:52.780Z,93.80
2023-11-12T13:23:20.723Z,93.90
2023-11-12T13:25:51.114Z,93.90
2023-11-12T13:28:19.467Z,93.90
2023-11-12T13:30:48.700Z,93.90
2023-11-12T13:33:17.462Z,93.90
2023-11-12T13:35:46.402Z,94.00
2023-11-12T13:38:14.587Z,93.90
2023-11-12T13:40:42.435Z,93.80
2023-11-12T13:43:10.399Z,93.70
2023-11-12T13:45:39.314Z,93.60
2023-11-12T13:48:09.569Z,93.70
2023-11-12T13:50:37.761Z,93.70
2023-11-12T13:53:10.829Z,93.70
2023-11-12T13:55:42.467Z,93.70
2023-11-12T13:58:14.896Z,93.70
2023-11-12T14:00:43.899Z,93.70
2023-11-12T14:03:12.926Z,93.70
2023-11-12T14:05:41.125Z,93.80
2023-11-12T14:08:12.265Z,93.70
2023-11-12T14:10:41.222Z,93.80
2023-11-12T14:13:10.592Z,93.80
2023-11-12T14:15:40.261Z,93.80
2023-11-12T14:18:08.899Z,93.80
2023-11-12T14:20:36.842Z,93.90
2023-11-12T14:23:04.618Z,93.90
2023-11-12T14:25:32.386Z,93.90
2023-11-12T14:28:04.269Z,93.90
2023-11-12T14:30:38.224Z,93.90
2023-11-12T14:33:08.509Z,94.00
2023-11-12T14:35:36.397Z,94.00
2023-11-12T14:38:06.809Z,94.00
2023-11-12T14:40:34.531Z,94.00
2023-11-12T14:43:08.032Z,94.00
2023-11-12T14:45:39.075Z,94.00
2023-11-12T14:48:08.745Z,94.00
2023-11-12T14:50:37.985Z,94.00
2023-11-12T14:53:06.525Z,94.00
2023-11-12T14:55:34.477Z,94.00
2023-11-12T14:58:02.903Z,94.00
2023-11-12T15:00:31.455Z,94.10
2023-11-12T15:03:00.736Z,94.10
2023-11-12T15:05:29.509Z,94.10
2023-11-12T15:07:57.445Z,94.10
2023-11-12T15:10:25.156Z,94.10
2023-11-12T15:12:55.675Z,94.20
2023-11-12T15:15:23.264Z,94.20
2023-11-12T15:17:53.430Z,94.20
2023-11-12T15:20:21.794Z,94.30
2023-11-12T15:22:51.658Z,94.30
2023-11-12T15:25:20.714Z,94.30
2023-11-12T15:27:52.381Z,94.30
2023-11-12T15:30:21.659Z,94.40
2023-11-12T15:32:50.185Z,94.40
2023-11-12T15:35:19.635Z,94.40
2023-11-12T15:37:47.414Z,94.40
2023-11-12T15:40:19.494Z,94.40
2023-11-12T15:42:48.990Z,94.40
2023-11-12T15:45:17.558Z,94.40
2023-11-12T15:47:46.427Z,94.50
2023-11-12T15:50:14.445Z,94.40
2023-11-12T15:52:42.243Z,94.40
2023-11-12T15:55:10.460Z,94.50
2023-11-12T15:57:38.491Z,94.50
2023-11-12T16:00:18.798Z,94.50
2023-11-12T16:02:47.893Z,94.50
2023-11-12T16:05:15.707Z,94.50
2023-11-12T16:07:44.076Z,94.50
2023-11-12T16:10:12.564Z,94.50
2023-11-12T16:12:41.193Z,94.50
2023-11-12T16:15:13.896Z,94.50
2023-11-12T16:17:44.811Z,94.50
2023-11-12T16:20:13.913Z,94.60
2023-11-12T16:22:42.507Z,94.60
2023-11-12T16:25:10.699Z,94.60
2023-11-12T16:27:38.889Z,94.60
2023-11-12T16:30:12.121Z,94.60
2023-11-12T16:32:39.685Z,94.60
2023-11-12T16:35:07.667Z,94.70
2023-11-12T16:37:35.332Z,94.70
2023-11-12T16:40:04.516Z,94.70
2023-11-12T16:42:32.135Z,94.70
2023-11-12T16:44:59.625Z,94.70
2023-11-12T16:47:27.370Z,94.70
2023-11-12T16:49:55.298Z,94.80
2023-11-12T16:52:23.237Z,94.80
2023-11-12T16:54:52.268Z,94.80
2023-11-12T16:57:19.781Z,94.80
2023-11-12T16:59:47.326Z,94.80
2023-11-12T17:02:15.360Z,94.80
2023-11-12T17:04:43.206Z,94.80
2023-11-12T17:07:12.465Z,94.80
2023-11-12T17:09:41.951Z,94.80
2023-11-12T17:12:13.856Z,94.80
2023-11-12T17:14:41.878Z,94.80
2023-11-12T17:17:09.874Z,94.80
2023-11-12T17:19:37.366Z,94.80
2023-11-12T17:22:04.841Z,94.80
2023-11-12T17:24:33.235Z,94.80
2023-11-12T17:27:01.360Z,94.80
2023-11-12T17:29:29.428Z,94.80
2023-11-12T17:31:56.934Z,94.80
2023-11-12T17:34:25.199Z,94.80
2023-11-12T17:36:52.996Z,94.80
2023-11-12T17:39:24.402Z,94.80
2023-11-12T17:41:53.879Z,94.80
2023-11-12T17:44:22.679Z,94.80
2023-11-12T17:46:50.491Z,94.80
2023-11-12T17:49:18.199Z,94.80
2023-11-12T17:51:47.537Z,94.80
2023-11-12T17:54:16.966Z,94.80
2023-11-12T17:56:47.247Z,94.80
2023-11-12T17:59:14.723Z,94.80
2023-11-12T18:01:42.636Z,94.80
2023-11-12T18:04:10.334Z,94.80
2023-11-12T18:06:39.097Z,94.80
2023-11-12T18:09:06.845Z,94.80
2023-11-12T18:11:35.419Z,94.90
2023-11-12T18:14:02.947Z,94.90
2023-11-12T18:16:30.578Z,94.80
2023-11-12T18:18:58.874Z,94.90
2023-11-12T18:21:29.179Z,94.80
2023-11-12T18:23:56.614Z,94.90
2023-11-12T18:26:25.052Z,94.90
2023-11-12T18:28:53.370Z,94.90
2023-11-12T18:31:24.845Z,94.90
2023-11-12T18:33:52.589Z,94.90
2023-11-12T18:36:20.229Z,94.90
2023-11-12T18:38:47.834Z,94.90
2023-11-12T18:41:15.881Z,94.90
2023-11-12T18:43:45.516Z,94.90
2023-11-12T18:46:13.170Z,94.90
2023-11-12T18:48:43.734Z,94.90
2023-11-12T18:51:11.359Z,94.80
2023-11-12T18:53:38.886Z,94.80
2023-11-12T18:56:08.471Z,94.90
2023-11-12T18:58:36.092Z,94.90
2023-11-12T19:01:04.163Z,94.80
2023-11-12T19:03:32.140Z,94.90
2023-11-12T19:05:59.852Z,94.90
2023-11-12T19:08:27.344Z,94.80
2023-11-12T19:10:55.435Z,94.90
2023-11-12T19:13:23.043Z,94.90
2023-11-12T19:15:52.222Z,94.90
2023-11-12T19:18:21.335Z,94.90
2023-11-12T19:20:49.185Z,94.90
2023-11-12T19:23:16.658Z,94.90
2023-11-12T19:25:44.480Z,94.90
2023-11-12T19:28:12.229Z,94.90
2023-11-12T19:30:39.920Z,94.90
2023-11-12T19:33:08.436Z,94.90
2023-11-12T19:35:37.048Z,94.90
2023-11-12T19:38:04.683Z,94.90
2023-11-12T19:40:32.584Z,94.90
2023-11-12T19:43:00.285Z,95.00
2023-11-12T19:45:27.780Z,94.90
2023-11-12T19:47:55.779Z,94.90
2023-11-12T19:50:24.993Z,95.00
2023-11-12T19:52:52.569Z,95.00
2023-11-12T19:55:20.946Z,95.00
2023-11-12T19:57:53.873Z,94.90
2023-11-12T20:00:22.467Z,94.90
2023-11-12T20:02:51.608Z,94.90
2023-11-12T20:05:19.888Z,94.90
2023-11-12T20:07:47.709Z,94.90
2023-11-12T20:10:15.554Z,95.00
2023-11-12T20:12:43.080Z,95.00
2023-11-12T20:15:11.281Z,95.00
2023-11-12T20:17:38.921Z,95.00
2023-11-12T20:20:06.888Z,94.90
2023-11-12T20:22:34.535Z,95.00
2023-11-12T20:25:02.477Z,94.90
2023-11-12T20:27:32.292Z,94.90
2023-11-12T20:30:00.098Z,94.90
2023-11-12T20:32:29.290Z,94.90
2023-11-12T20:34:57.863Z,94.90
2023-11-12T20:37:26.277Z,95.00
2023-11-12T20:39:54.155Z,95.00
2023-11-12T20:42:21.717Z,95.00
2023-11-12T20:44:50.183Z,95.10
2023-11-12T20:47:17.716Z,95.10
2023-11-12T20:49:45.278Z,95.10
2023-11-12T20:52:13.313Z,95.00
2023-11-12T20:54:41.064Z,95.00
2023-11-12T20:57:08.757Z,95.10
2023-11-12T20:59:37.941Z,95.10
2023-11-12T21:02:14.380Z,95.10
2023-11-12T21:04:49.940Z,95.20
2023-11-12T21:07:21.054Z,95.20
2023-11-12T21:09:50.588Z,95.20
2023-11-12T21:12:18.809Z,95.20
2023-11-12T21:14:48.298Z,95.20
2023-11-12T21:17:19.503Z,95.20
2023-11-12T21:19:47.626Z,95.20
2023-11-12T21:22:15.220Z,95.20
2023-11-12T21:24:44.418Z,95.20
2023-11-12T21:27:13.699Z,95.20
2023-11-12T21:29:41.896Z,95.20
2023-11-12T21:32:10.458Z,95.20
2023-11-12T21:34:38.217Z,95.20
2023-11-12T21:37:09.164Z,95.10
2023-11-12T21:39:37.215Z,95.20
2023-11-12T21:42:08.368Z,95.20
2023-11-12T21:44:36.617Z,95.20
2023-11-12T21:47:04.584Z,95.20
2023-11-12T21:49:32.950Z,95.30
2023-11-12T21:52:00.835Z,95.30
2023-11-12T21:54:28.272Z,95.30
2023-11-12T21:56:55.865Z,95.30
2023-11-12T21:59:23.393Z,95.30
2023-11-12T22:01:52.531Z,95.40
2023-11-12T22:04:21.457Z,95.40
2023-11-12T22:06:49.404Z,95.30
2023-11-12T22:09:18.092Z,95.30
2023-11-12T22:11:45.952Z,95.30
2023-11-12T22:14:14.016Z,95.30
2023-11-12T22:16:45.981Z,95.20
2023-11-12T22:19:14.298Z,95.30
2023-11-12T22:21:44.960Z,95.20
2023-11-12T22:24:12.604Z,95.20
2023-11-12T22:26:41.000Z,95.30
2023-11-12T22:29:08.903Z,95.30
2023-11-12T22:31:36.753Z,95.30
2023-11-12T22:34:05.071Z,95.40
2023-11-12T22:36:32.768Z,95.40
2023-11-12T22:39:00.679Z,95.30
2023-11-12T22:41:28.508Z,95.30
2023-11-12T22:43:59.396Z,95.30
2023-11-12T22:46:26.859Z,95.30
2023-11-12T22:48:54.561Z,95.30
2023-11-12T22:51:22.167Z,95.30
2023-11-12T22:53:50.497Z,95.30
2023-11-12T22:56:18.124Z,95.30
2023-11-12T22:58:47.283Z,95.40
2023-11-12T23:01:16.838Z,95.40
2023-11-12T23:03:47.996Z,95.40
2023-11-12T23:06:17.790Z,95.40
2023-11-12T23:08:45.341Z,95.40
2023-11-12T23:11:14.300Z,95.40
2023-11-12T23:13:43.462Z,95.50
2023-11-12T23:16:11.359Z,95.50
2023-11-12T23:18:38.992Z,95.50
2023-11-12T23:21:09.802Z,95.50
2023-11-12T23:23:38.245Z,95.50
2023-11-12T23:26:06.825Z,95.50
2023-11-12T23:28:36.346Z,95.50
2023-11-12T23:31:04.327Z,95.50
2023-11-12T23:33:31.970Z,95.50
2023-11-12T23:35:59.906Z,95.50
2023-11-12T23:38:27.396Z,95.50
2023-11-12T23:40:55.907Z,95.50
2023-11-12T23:43:23.422Z,95.50
2023-11-12T23:45:51.689Z,95.50
2023-11-12T23:48:19.271Z,95.50
2023-11-12T23:50:46.799Z,95.50
2023-11-12T23:53:14.442Z,95.50
2023-11-12T23:55:42.572Z,95.50
2023-11-12T23:58:10.957Z,95.50
